createdAt,value
2017-02-14T00:00:29.808Z,3.57
2017-02-14T00:01:29.749Z,3.57
2017-02-14T00:02:29.728Z,3.47
2017-02-14T00:03:29.708Z,3.5
2017-02-14T00:04:29.298Z,3.47
2017-02-14T00:05:29.672Z,3.44
2017-02-14T00:06:29.626Z,3.47
2017-02-14T00:07:29.207Z,3.54
2017-02-14T00:08:29.190Z,3.44
2017-02-14T00:09:29.551Z,3.56
2017-02-14T00:10:29.512Z,3.46
2017-02-14T00:11:29.495Z,3.35
2017-02-14T00:12:29.466Z,3.5
2017-02-14T00:13:29.070Z,3.47
2017-02-14T00:14:29.145Z,3.43
2017-02-14T00:15:29.411Z,3.34
2017-02-14T00:16:29.070Z,3.34
2017-02-14T00:17:29.018Z,3.25
2017-02-14T00:18:29.330Z,3.23
2017-02-14T00:19:29.290Z,3.28
2017-02-14T00:20:28.521Z,3.27
2017-02-14T00:21:28.872Z,3.15
2017-02-14T00:22:28.427Z,3.27
2017-02-14T00:23:29.197Z,3.28
2017-02-14T00:24:29.157Z,3.31
2017-02-14T00:25:29.137Z,3.12
2017-02-14T00:26:28.731Z,3.17
2017-02-14T00:27:28.712Z,3.24
2017-02-14T00:28:29.076Z,3.07
2017-02-14T00:29:29.044Z,3.25
2017-02-14T00:30:28.621Z,3.44
2017-02-14T00:31:28.595Z,3.46
2017-02-14T00:32:28.572Z,3.31
2017-02-14T00:33:28.924Z,3.21
2017-02-14T00:34:28.913Z,3.23
2017-02-14T00:35:28.495Z,3.23
2017-02-14T00:36:28.480Z,3.3
2017-02-14T00:37:28.440Z,3.43
2017-02-14T00:38:28.419Z,3.52
2017-02-14T00:39:28.399Z,3.61
2017-02-14T00:40:28.358Z,3.57
2017-02-14T00:41:28.339Z,3.74
2017-02-14T00:42:28.289Z,3.74
2017-02-14T00:43:27.887Z,3.79
2017-02-14T00:44:28.646Z,3.71
2017-02-14T00:45:28.634Z,3.7
2017-02-14T00:46:28.205Z,3.72
2017-02-14T00:47:28.175Z,3.67
2017-02-14T00:48:28.535Z,3.79
2017-02-14T00:49:28.515Z,3.75
2017-02-14T00:50:28.493Z,3.78
2017-02-14T00:51:28.075Z,3.82
2017-02-14T00:52:28.051Z,3.71
2017-02-14T00:53:28.399Z,3.67
2017-02-14T00:54:27.991Z,3.53
2017-02-14T00:55:28.360Z,3.42
2017-02-14T00:56:28.351Z,3.54
2017-02-14T00:57:28.307Z,3.52
2017-02-14T00:58:28.268Z,3.47
2017-02-14T00:59:28.248Z,3.31
2017-02-14T01:00:28.212Z,3.44
2017-02-14T01:01:27.818Z,3.33
2017-02-14T01:02:28.166Z,3.27
2017-02-14T01:03:27.763Z,3.21
2017-02-14T01:04:28.137Z,3.28
2017-02-14T01:05:27.737Z,3.23
2017-02-14T01:06:27.672Z,3.23
2017-02-14T01:07:27.684Z,3.21
2017-02-14T01:08:28.025Z,3.1
2017-02-14T01:09:27.994Z,3.09
2017-02-14T01:10:27.586Z,3.09
2017-02-14T01:11:27.263Z,3.05
2017-02-14T01:12:27.152Z,2.98
2017-02-14T01:13:27.911Z,3.05
2017-02-14T01:14:27.872Z,2.99
2017-02-14T01:15:27.520Z,2.91
2017-02-14T01:16:27.849Z,2.95
2017-02-14T01:17:27.790Z,2.81
2017-02-14T01:18:27.368Z,2.77
2017-02-14T01:19:26.970Z,2.64
2017-02-14T01:20:27.701Z,2.77
2017-02-14T01:21:27.677Z,2.85
2017-02-14T01:22:27.663Z,2.97
2017-02-14T01:23:27.295Z,2.99
2017-02-14T01:24:27.274Z,2.87
2017-02-14T01:25:27.575Z,2.94
2017-02-14T01:26:27.148Z,2.88
2017-02-14T01:27:27.123Z,2.87
2017-02-14T01:28:27.104Z,2.97
2017-02-14T01:29:27.085Z,2.95
2017-02-14T01:30:27.061Z,2.91
2017-02-14T01:31:27.432Z,2.94
2017-02-14T01:32:27.433Z,2.92
2017-02-14T01:33:26.961Z,2.91
2017-02-14T01:34:26.579Z,3.03
2017-02-14T01:35:26.919Z,2.88
2017-02-14T01:36:27.020Z,2.87
2017-02-14T01:37:26.859Z,2.8
2017-02-14T01:38:26.458Z,2.71
2017-02-14T01:39:26.829Z,2.79
2017-02-14T01:40:26.407Z,2.77
2017-02-14T01:41:26.768Z,2.73
2017-02-14T01:42:27.106Z,2.87
2017-02-14T01:43:26.336Z,2.85
2017-02-14T01:44:26.315Z,3.03
2017-02-14T01:45:26.658Z,3.09
2017-02-14T01:46:27.036Z,3.02
2017-02-14T01:47:26.991Z,3.03
2017-02-14T01:48:26.581Z,3.05
2017-02-14T01:49:26.562Z,2.99
2017-02-14T01:50:26.534Z,3.09
2017-02-14T01:51:26.491Z,3.12
2017-02-14T01:52:26.081Z,3.13
2017-02-14T01:53:26.450Z,3.06
2017-02-14T01:54:26.419Z,3.07
2017-02-14T01:55:26.817Z,3.1
2017-02-14T01:56:26.360Z,3.05
2017-02-14T01:57:26.328Z,3.02
2017-02-14T01:58:26.719Z,3.05
2017-02-14T01:59:26.307Z,3.1
2017-02-14T02:00:26.256Z,3.03
2017-02-14T02:01:26.627Z,2.97
2017-02-14T02:02:26.206Z,3.09
2017-02-14T02:03:26.183Z,3.09
2017-02-14T02:04:26.544Z,3.13
2017-02-14T02:05:26.524Z,3.03
2017-02-14T02:06:26.479Z,3.12
2017-02-14T02:07:26.103Z,3.17
2017-02-14T02:08:26.053Z,3.21
2017-02-14T02:09:26.036Z,3.12
2017-02-14T02:10:26.371Z,3.07
2017-02-14T02:11:26.371Z,2.94
2017-02-14T02:12:26.330Z,2.99
2017-02-14T02:13:25.930Z,3.12
2017-02-14T02:14:26.289Z,3.1
2017-02-14T02:15:26.269Z,3.06
2017-02-14T02:16:26.247Z,3.06
2017-02-14T02:17:26.204Z,3.12
2017-02-14T02:18:25.796Z,3.09
2017-02-14T02:19:26.146Z,3.02
2017-02-14T02:20:25.740Z,2.97
2017-02-14T02:21:25.312Z,2.8
2017-02-14T02:22:26.056Z,2.8
2017-02-14T02:23:25.665Z,2.77
2017-02-14T02:24:26.015Z,2.85
2017-02-14T02:25:25.602Z,2.79
2017-02-14T02:26:25.965Z,2.77
2017-02-14T02:27:25.957Z,2.67
2017-02-14T02:28:25.901Z,2.64
2017-02-14T02:29:25.491Z,2.66
2017-02-14T02:30:25.863Z,2.7
2017-02-14T02:31:25.841Z,2.76
2017-02-14T02:32:25.411Z,2.79
2017-02-14T02:33:25.007Z,2.67
2017-02-14T02:34:25.379Z,2.64
2017-02-14T02:35:25.338Z,2.73
2017-02-14T02:36:25.302Z,2.66
2017-02-14T02:37:25.295Z,2.61
2017-02-14T02:38:25.306Z,2.71
2017-02-14T02:39:25.628Z,2.76
2017-02-14T02:40:25.306Z,2.97
2017-02-14T02:41:24.795Z,2.88
2017-02-14T02:42:25.142Z,2.91
2017-02-14T02:43:24.732Z,2.84
2017-02-14T02:44:24.853Z,2.81
2017-02-14T02:45:25.463Z,2.85
2017-02-14T02:46:25.038Z,2.8
2017-02-14T02:47:24.622Z,2.8
2017-02-14T02:48:25.383Z,2.85
2017-02-14T02:49:25.352Z,2.81
2017-02-14T02:50:25.369Z,2.8
2017-02-14T02:51:24.517Z,2.76
2017-02-14T02:52:25.269Z,2.85
2017-02-14T02:53:25.248Z,2.77
2017-02-14T02:54:24.872Z,2.67
2017-02-14T02:55:24.420Z,2.66
2017-02-14T02:56:25.190Z,2.79
2017-02-14T02:57:24.374Z,2.76
2017-02-14T02:58:24.725Z,2.85
2017-02-14T02:59:24.719Z,2.84
2017-02-14T03:00:24.287Z,2.74
2017-02-14T03:01:25.034Z,2.71
2017-02-14T03:02:24.624Z,2.7
2017-02-14T03:03:24.614Z,2.77
2017-02-14T03:04:24.962Z,2.8
2017-02-14T03:05:24.549Z,2.77
2017-02-14T03:06:24.514Z,2.81
2017-02-14T03:07:24.862Z,2.77
2017-02-14T03:08:24.470Z,2.76
2017-02-14T03:09:24.819Z,2.74
2017-02-14T03:10:24.788Z,2.7
2017-02-14T03:11:24.756Z,2.81
2017-02-14T03:12:24.346Z,2.69
2017-02-14T03:13:24.318Z,2.8
2017-02-14T03:14:24.686Z,2.74
2017-02-14T03:15:24.271Z,2.71
2017-02-14T03:16:24.245Z,2.77
2017-02-14T03:17:24.227Z,2.77
2017-02-14T03:18:24.562Z,2.84
2017-02-14T03:19:24.591Z,2.85
2017-02-14T03:20:24.144Z,2.79
2017-02-14T03:21:24.103Z,2.66
2017-02-14T03:22:24.473Z,2.79
2017-02-14T03:23:24.047Z,2.77
2017-02-14T03:24:24.435Z,2.81
2017-02-14T03:25:24.432Z,2.79
2017-02-14T03:26:24.363Z,2.69
2017-02-14T03:27:24.352Z,2.67
2017-02-14T03:28:23.928Z,2.7
2017-02-14T03:29:24.280Z,2.71
2017-02-14T03:30:23.858Z,2.76
2017-02-14T03:31:24.218Z,3.05
2017-02-14T03:32:23.809Z,3.06
2017-02-14T03:33:23.787Z,2.95
2017-02-14T03:34:23.763Z,2.95
2017-02-14T03:35:23.754Z,2.8
2017-02-14T03:36:23.705Z,2.94
2017-02-14T03:37:23.304Z,2.94
2017-02-14T03:38:24.035Z,2.94
2017-02-14T03:39:23.633Z,2.95
2017-02-14T03:40:23.993Z,2.87
2017-02-14T03:41:23.612Z,2.92
2017-02-14T03:42:23.962Z,2.95
2017-02-14T03:43:23.911Z,3.02
2017-02-14T03:44:23.524Z,2.87
2017-02-14T03:45:23.128Z,2.95
2017-02-14T03:46:23.429Z,2.91
2017-02-14T03:47:23.789Z,2.81
2017-02-14T03:48:23.387Z,3.02
2017-02-14T03:49:23.784Z,2.97
2017-02-14T03:50:23.337Z,2.99
2017-02-14T03:51:23.296Z,2.94
2017-02-14T03:52:23.665Z,3.02
2017-02-14T03:53:23.655Z,3.06
2017-02-14T03:54:23.615Z,2.98
2017-02-14T03:55:23.585Z,2.85
2017-02-14T03:56:23.164Z,2.85
2017-02-14T03:57:23.153Z,2.84
2017-02-14T03:58:23.523Z,2.92
2017-02-14T03:59:23.492Z,2.8
2017-02-14T04:00:23.450Z,2.77
2017-02-14T04:01:23.482Z,2.77
2017-02-14T04:02:23.021Z,2.77
2017-02-14T04:03:23.011Z,2.71
2017-02-14T04:04:23.361Z,2.58
2017-02-14T04:05:23.350Z,2.59
2017-02-14T04:06:23.289Z,2.59
2017-02-14T04:07:23.260Z,2.67
2017-02-14T04:08:22.847Z,2.67
2017-02-14T04:09:22.847Z,2.69
2017-02-14T04:10:23.177Z,2.7
2017-02-14T04:11:22.766Z,2.81
2017-02-14T04:12:23.163Z,2.81
2017-02-14T04:13:23.172Z,2.81
2017-02-14T04:14:22.702Z,2.58
2017-02-14T04:15:23.044Z,2.51
2017-02-14T04:16:23.054Z,2.56
2017-02-14T04:17:22.227Z,2.58
2017-02-14T04:18:22.992Z,2.55
2017-02-14T04:19:22.952Z,2.61
2017-02-14T04:20:22.541Z,2.64
2017-02-14T04:21:22.571Z,2.69
2017-02-14T04:22:22.484Z,2.58
2017-02-14T04:23:22.838Z,2.58
2017-02-14T04:24:22.816Z,2.58
2017-02-14T04:25:22.400Z,2.61
2017-02-14T04:26:22.789Z,2.61
2017-02-14T04:27:21.960Z,2.48
2017-02-14T04:28:22.324Z,2.44
2017-02-14T04:29:22.699Z,2.67
2017-02-14T04:30:22.652Z,2.67
2017-02-14T04:31:21.846Z,2.66
2017-02-14T04:32:22.206Z,2.7
2017-02-14T04:33:22.183Z,2.71
2017-02-14T04:34:22.157Z,2.71
2017-02-14T04:35:22.124Z,2.7
2017-02-14T04:36:21.724Z,2.69
2017-02-14T04:37:22.076Z,2.77
2017-02-14T04:38:22.063Z,2.85
2017-02-14T04:39:22.023Z,2.87
2017-02-14T04:40:22.374Z,2.88
2017-02-14T04:41:21.971Z,2.85
2017-02-14T04:42:21.932Z,2.8
2017-02-14T04:43:21.921Z,3.02
2017-02-14T04:44:22.288Z,2.98
2017-02-14T04:45:21.861Z,2.79
2017-02-14T04:46:22.219Z,2.74
2017-02-14T04:47:21.797Z,2.71
2017-02-14T04:48:22.180Z,2.67
2017-02-14T04:49:22.168Z,2.61
2017-02-14T04:50:22.117Z,2.67
2017-02-14T04:51:22.090Z,2.62
2017-02-14T04:52:21.698Z,2.66
2017-02-14T04:53:21.262Z,2.61
2017-02-14T04:54:22.008Z,2.7
2017-02-14T04:55:21.583Z,2.7
2017-02-14T04:56:21.953Z,2.67
2017-02-14T04:57:21.923Z,2.66
2017-02-14T04:58:21.527Z,2.61
2017-02-14T04:59:21.890Z,2.67
2017-02-14T05:00:21.854Z,2.64
2017-02-14T05:01:21.841Z,2.64
2017-02-14T05:02:21.030Z,2.44
2017-02-14T05:03:21.791Z,2.52
2017-02-14T05:04:21.748Z,2.49
2017-02-14T05:05:21.340Z,2.35
2017-02-14T05:06:21.307Z,2.37
2017-02-14T05:07:21.683Z,2.38
2017-02-14T05:08:21.734Z,2.3
2017-02-14T05:09:21.671Z,2.25
2017-02-14T05:10:21.186Z,2.23
2017-02-14T05:11:21.224Z,2.26
2017-02-14T05:12:21.145Z,2.25
2017-02-14T05:13:21.526Z,2.19
2017-02-14T05:14:21.095Z,2.23
2017-02-14T05:15:21.464Z,2.34
2017-02-14T05:16:21.473Z,2.38
2017-02-14T05:17:21.402Z,2.51
2017-02-14T05:18:21.419Z,2.52
2017-02-14T05:19:21.361Z,2.51
2017-02-14T05:20:20.534Z,2.48
2017-02-14T05:21:21.280Z,2.51
2017-02-14T05:22:20.480Z,2.55
2017-02-14T05:23:21.240Z,2.52
2017-02-14T05:24:20.882Z,2.58
2017-02-14T05:25:20.797Z,2.56
2017-02-14T05:26:21.199Z,2.64
2017-02-14T05:27:20.749Z,2.61
2017-02-14T05:28:20.312Z,2.61
2017-02-14T05:29:21.083Z,2.67
2017-02-14T05:30:21.137Z,2.64
2017-02-14T05:31:20.235Z,2.62
2017-02-14T05:32:20.615Z,2.62
2017-02-14T05:33:20.584Z,2.64
2017-02-14T05:34:20.640Z,2.66
2017-02-14T05:35:20.982Z,2.64
2017-02-14T05:36:20.093Z,2.64
2017-02-14T05:37:20.482Z,2.69
2017-02-14T05:38:20.453Z,2.67
2017-02-14T05:39:20.033Z,2.67
2017-02-14T05:40:20.391Z,2.62
2017-02-14T05:41:20.760Z,2.7
2017-02-14T05:42:20.730Z,2.59
2017-02-14T05:43:20.319Z,2.58
2017-02-14T05:44:20.678Z,2.44
2017-02-14T05:45:20.633Z,2.64
2017-02-14T05:46:20.627Z,2.46
2017-02-14T05:47:20.207Z,2.59
2017-02-14T05:48:20.184Z,2.59
2017-02-14T05:49:20.165Z,2.67
2017-02-14T05:50:20.119Z,2.61
2017-02-14T05:51:20.123Z,2.44
2017-02-14T05:52:19.693Z,2.52
2017-02-14T05:53:20.433Z,2.34
2017-02-14T05:54:20.411Z,2.4
2017-02-14T05:55:19.591Z,2.37
2017-02-14T05:56:20.353Z,2.34
2017-02-14T05:57:19.562Z,2.37
2017-02-14T05:58:19.897Z,2.4
2017-02-14T05:59:20.286Z,2.38
2017-02-14T06:00:19.459Z,2.31
2017-02-14T06:01:19.428Z,2.51
2017-02-14T06:02:20.180Z,2.51
2017-02-14T06:03:19.758Z,2.52
2017-02-14T06:04:20.137Z,2.46
2017-02-14T06:05:19.337Z,2.41
2017-02-14T06:06:19.360Z,2.28
2017-02-14T06:07:19.309Z,2.31
2017-02-14T06:08:19.685Z,2.37
2017-02-14T06:09:19.606Z,2.33
2017-02-14T06:10:19.627Z,2.35
2017-02-14T06:11:19.193Z,2.23
2017-02-14T06:12:19.980Z,2.35
2017-02-14T06:13:19.584Z,2.15
2017-02-14T06:14:19.961Z,2.23
2017-02-14T06:15:19.882Z,2.31
2017-02-14T06:16:19.882Z,2.33
2017-02-14T06:17:19.387Z,2.35
2017-02-14T06:18:19.430Z,2.28
2017-02-14T06:19:19.339Z,2.41
2017-02-14T06:20:19.389Z,2.4
2017-02-14T06:21:19.389Z,2.37
2017-02-14T06:22:19.747Z,2.38
2017-02-14T06:23:19.308Z,2.4
2017-02-14T06:24:19.207Z,2.34
2017-02-14T06:25:19.216Z,2.34
2017-02-14T06:26:19.257Z,2.31
2017-02-14T06:27:19.607Z,2.37
2017-02-14T06:28:19.541Z,2.37
2017-02-14T06:29:19.133Z,2.52
2017-02-14T06:30:19.029Z,2.52
2017-02-14T06:31:19.402Z,2.49
2017-02-14T06:32:18.622Z,2.55
2017-02-14T06:33:19.468Z,2.51
2017-02-14T06:34:18.942Z,2.41
2017-02-14T06:35:18.916Z,2.55
2017-02-14T06:36:19.281Z,2.49
2017-02-14T06:37:18.942Z,2.31
2017-02-14T06:38:19.330Z,2.37
2017-02-14T06:39:19.189Z,2.23
2017-02-14T06:40:19.168Z,2.23
2017-02-14T06:41:18.371Z,2.17
2017-02-14T06:42:19.161Z,2.15
2017-02-14T06:43:18.798Z,2.2
2017-02-14T06:44:19.169Z,2.25
2017-02-14T06:45:19.033Z,2.19
2017-02-14T06:46:18.634Z,2.19
2017-02-14T06:47:18.593Z,2.26
2017-02-14T06:48:18.971Z,2.2
2017-02-14T06:49:18.145Z,2.25
2017-02-14T06:50:18.553Z,2.23
2017-02-14T06:51:18.543Z,2.31
2017-02-14T06:52:18.468Z,2.26
2017-02-14T06:53:18.483Z,2.22
2017-02-14T06:54:18.390Z,2.26
2017-02-14T06:55:18.760Z,2.2
2017-02-14T06:56:18.743Z,2.15
2017-02-14T06:57:18.737Z,2.19
2017-02-14T06:58:18.687Z,2.04
2017-02-14T06:59:18.655Z,2.17
2017-02-14T07:00:18.629Z,2.13
2017-02-14T07:01:18.587Z,2.23
2017-02-14T07:02:18.567Z,2.23
2017-02-14T07:03:17.759Z,2.15
2017-02-14T07:04:18.536Z,2.19
2017-02-14T07:05:18.096Z,2.12
2017-02-14T07:06:18.083Z,2.13
2017-02-14T07:07:17.662Z,2.19
2017-02-14T07:08:18.410Z,2.19
2017-02-14T07:09:18.383Z,2.2
2017-02-14T07:10:17.973Z,2.15
2017-02-14T07:11:17.600Z,2.16
2017-02-14T07:12:17.920Z,2.16
2017-02-14T07:13:17.941Z,2.23
2017-02-14T07:14:17.471Z,2.2
2017-02-14T07:15:18.267Z,2.81
2017-02-14T07:16:17.425Z,3.4
2017-02-14T07:17:18.219Z,3.82
2017-02-14T07:18:17.748Z,3.82
2017-02-14T07:19:17.722Z,3.82
2017-02-14T07:20:17.698Z,4.23
2017-02-14T07:21:18.156Z,5.11
2017-02-14T07:22:18.039Z,5.7
2017-02-14T07:23:17.706Z,6.1
2017-02-14T07:24:17.597Z,6.8
2017-02-14T07:25:17.565Z,7.09
2017-02-14T07:26:17.546Z,7.78
2017-02-14T07:27:18.034Z,7.7
2017-02-14T07:28:17.523Z,7.45
2017-02-14T07:29:17.476Z,6.9
2017-02-14T07:30:17.602Z,6.04
2017-02-14T07:31:17.824Z,5.47
2017-02-14T07:32:17.854Z,5.09
2017-02-14T07:33:17.091Z,4.87
2017-02-14T07:34:16.959Z,4.72
2017-02-14T07:35:17.728Z,4.39
2017-02-14T07:36:17.707Z,4.16
2017-02-14T07:37:17.288Z,3.95
2017-02-14T07:38:17.295Z,3.75
2017-02-14T07:39:17.229Z,3.52
2017-02-14T07:40:16.826Z,4.05
2017-02-14T07:41:17.256Z,5.1
2017-02-14T07:42:17.655Z,6.52
2017-02-14T07:43:17.524Z,7.45
2017-02-14T07:44:17.170Z,8.37
2017-02-14T07:45:16.764Z,8.52
2017-02-14T07:46:17.065Z,9.27
2017-02-14T07:47:17.442Z,9.82
2017-02-14T07:48:16.643Z,10.1
2017-02-14T07:49:16.679Z,10.37
2017-02-14T07:50:16.974Z,10.11
2017-02-14T07:51:17.459Z,10.05
2017-02-14T07:52:16.933Z,9.75
2017-02-14T07:53:16.920Z,9.56
2017-02-14T07:54:16.518Z,10.55
2017-02-14T07:55:17.298Z,11.54
2017-02-14T07:56:17.264Z,11.03
2017-02-14T07:57:17.251Z,12.05
2017-02-14T07:58:16.827Z,12.64
2017-02-14T07:59:17.221Z,11.58
2017-02-14T08:00:17.189Z,11.97
2017-02-14T08:01:17.181Z,11.72
2017-02-14T08:02:17.296Z,11.87
2017-02-14T08:03:17.165Z,11.98
2017-02-14T08:04:16.824Z,12.39
2017-02-14T08:05:16.697Z,12.83
2017-02-14T08:06:17.082Z,13.4
2017-02-14T08:07:16.676Z,12.28
2017-02-14T08:08:16.281Z,12.83
2017-02-14T08:09:16.645Z,13.31
2017-02-14T08:10:17.120Z,13.55
2017-02-14T08:11:16.222Z,13.66
2017-02-14T08:12:16.220Z,13.4
2017-02-14T08:13:16.580Z,13.04
2017-02-14T08:14:16.958Z,12.58
2017-02-14T08:15:16.573Z,12.16
2017-02-14T08:16:16.518Z,12.58
2017-02-14T08:17:16.527Z,12.5
2017-02-14T08:18:16.905Z,13.06
2017-02-14T08:19:16.891Z,13.25
2017-02-14T08:20:16.875Z,13.08
2017-02-14T08:21:16.465Z,12.39
2017-02-14T08:22:16.889Z,12.71
2017-02-14T08:23:16.439Z,12.39
2017-02-14T08:24:16.804Z,12.82
2017-02-14T08:25:16.882Z,12.39
2017-02-14T08:26:16.403Z,11.84
2017-02-14T08:27:16.002Z,12.31
2017-02-14T08:28:16.402Z,11.97
2017-02-14T08:29:16.761Z,12.15
2017-02-14T08:30:16.740Z,12.71
2017-02-14T08:31:16.736Z,12.7
2017-02-14T08:32:16.330Z,12.21
2017-02-14T08:33:16.708Z,11.73
2017-02-14T08:34:16.694Z,11.76
2017-02-14T08:35:16.689Z,11.69
2017-02-14T08:36:16.280Z,12.15
2017-02-14T08:37:16.629Z,12.13
2017-02-14T08:38:16.227Z,12.48
2017-02-14T08:39:15.826Z,12.92
2017-02-14T08:40:16.207Z,12.49
2017-02-14T08:41:16.198Z,11.95
2017-02-14T08:42:16.580Z,12.03
2017-02-14T08:43:16.564Z,12.17
2017-02-14T08:44:16.164Z,12.34
2017-02-14T08:45:16.149Z,12.43
2017-02-14T08:46:16.133Z,12.64
2017-02-14T08:47:15.743Z,12.92
2017-02-14T08:48:16.111Z,13.19
2017-02-14T08:49:16.122Z,12.82
2017-02-14T08:50:16.470Z,12.3
2017-02-14T08:51:16.121Z,12.57
2017-02-14T08:52:16.040Z,12.76
2017-02-14T08:53:16.431Z,12.35
2017-02-14T08:54:16.028Z,12.15
2017-02-14T08:55:15.992Z,12.48
2017-02-14T08:56:16.360Z,12.49
2017-02-14T08:57:15.987Z,12.94
2017-02-14T08:58:16.366Z,13.26
2017-02-14T08:59:16.336Z,13.56
2017-02-14T09:00:16.351Z,13.38
2017-02-14T09:01:16.322Z,13.7
2017-02-14T09:02:15.929Z,14.05
2017-02-14T09:03:15.906Z,14.38
2017-02-14T09:04:15.903Z,14.26
2017-02-14T09:05:15.884Z,14.36
2017-02-14T09:06:16.273Z,14.5
2017-02-14T09:07:15.871Z,12.81
2017-02-14T09:08:16.245Z,13.23
2017-02-14T09:09:15.850Z,13.82
2017-02-14T09:10:15.850Z,13.78
2017-02-14T09:11:16.204Z,13.81
2017-02-14T09:12:16.225Z,13.49
2017-02-14T09:13:15.407Z,13.41
2017-02-14T09:14:16.167Z,12.83
2017-02-14T09:15:15.778Z,12.24
2017-02-14T09:16:15.767Z,12.02
2017-02-14T09:17:15.747Z,11.98
2017-02-14T09:18:15.736Z,11.91
2017-02-14T09:19:16.126Z,12.21
2017-02-14T09:20:15.785Z,11.9
2017-02-14T09:21:16.106Z,11.6
2017-02-14T09:22:16.113Z,11.57
2017-02-14T09:23:15.299Z,11.28
2017-02-14T09:24:15.691Z,11.32
2017-02-14T09:25:15.692Z,11.79
2017-02-14T09:26:15.330Z,12.73
2017-02-14T09:27:15.677Z,13.14
2017-02-14T09:28:16.032Z,13.67
2017-02-14T09:29:16.054Z,13.95
2017-02-14T09:30:16.007Z,14.08
2017-02-14T09:31:15.228Z,14.29
2017-02-14T09:32:15.609Z,13.57
2017-02-14T09:33:15.597Z,13.01
2017-02-14T09:34:15.584Z,13
2017-02-14T09:35:16.060Z,12.37
2017-02-14T09:36:15.266Z,11.46
2017-02-14T09:37:15.604Z,11.4
2017-02-14T09:38:15.580Z,12.3
2017-02-14T09:39:15.524Z,12.32
2017-02-14T09:40:15.981Z,11.84
2017-02-14T09:41:15.973Z,11.28
2017-02-14T09:42:15.142Z,11.2
2017-02-14T09:43:15.482Z,11.98
2017-02-14T09:44:15.574Z,12.3
2017-02-14T09:45:15.481Z,12.34
2017-02-14T09:46:15.871Z,11.66
2017-02-14T09:47:15.830Z,11.81
2017-02-14T09:48:15.071Z,12.21
2017-02-14T09:49:15.420Z,11.94
2017-02-14T09:50:15.067Z,11.72
2017-02-14T09:51:15.770Z,11.71
2017-02-14T09:52:14.987Z,12.76
2017-02-14T09:53:15.766Z,13.63
2017-02-14T09:54:15.826Z,14.38
2017-02-14T09:55:15.356Z,14.42
2017-02-14T09:56:15.711Z,14.82
2017-02-14T09:57:15.325Z,14.57
2017-02-14T09:58:15.307Z,14.94
2017-02-14T09:59:14.903Z,14.4
2017-02-14T10:00:15.311Z,14.13
2017-02-14T10:01:15.293Z,13.84
2017-02-14T10:02:15.642Z,14.17
2017-02-14T10:03:15.643Z,13.92
2017-02-14T10:04:15.263Z,14.17
2017-02-14T10:05:15.240Z,14.33
2017-02-14T10:06:14.852Z,13.23
2017-02-14T10:07:15.222Z,13.88
2017-02-14T10:08:15.599Z,14.08
2017-02-14T10:09:15.585Z,14.47
2017-02-14T10:10:15.203Z,14.47
2017-02-14T10:11:15.582Z,14.58
2017-02-14T10:12:15.216Z,14.58
2017-02-14T10:13:15.569Z,13.95
2017-02-14T10:14:15.676Z,13.82
2017-02-14T10:15:15.144Z,13.65
2017-02-14T10:16:15.527Z,13.26
2017-02-14T10:17:15.135Z,13.84
2017-02-14T10:18:15.119Z,13.7
2017-02-14T10:19:15.106Z,14.02
2017-02-14T10:20:15.492Z,14.22
2017-02-14T10:21:14.713Z,13.99
2017-02-14T10:22:15.572Z,13.67
2017-02-14T10:23:15.502Z,13.57
2017-02-14T10:24:14.690Z,13.72
2017-02-14T10:25:15.049Z,14.44
2017-02-14T10:26:15.107Z,15.14
2017-02-14T10:27:15.018Z,15.22
2017-02-14T10:28:15.017Z,15.16
2017-02-14T10:29:15.397Z,14.25
2017-02-14T10:30:15.437Z,14.39
2017-02-14T10:31:15.428Z,13.66
2017-02-14T10:32:14.977Z,12.43
2017-02-14T10:33:14.586Z,11.99
2017-02-14T10:34:15.405Z,11.86
2017-02-14T10:35:15.329Z,11.95
2017-02-14T10:36:15.334Z,13.08
2017-02-14T10:37:15.320Z,13.78
2017-02-14T10:38:14.525Z,14.21
2017-02-14T10:39:15.287Z,14.82
2017-02-14T10:40:14.891Z,15.44
2017-02-14T10:41:15.275Z,16.01
2017-02-14T10:42:14.900Z,16.72
2017-02-14T10:43:14.475Z,16.45
2017-02-14T10:44:14.835Z,15.49
2017-02-14T10:45:15.209Z,14.57
2017-02-14T10:46:14.438Z,14.72
2017-02-14T10:47:15.188Z,15.1
2017-02-14T10:48:14.811Z,15.54
2017-02-14T10:49:15.188Z,15.12
2017-02-14T10:50:14.778Z,15.42
2017-02-14T10:51:14.767Z,15.32
2017-02-14T10:52:14.396Z,15.44
2017-02-14T10:53:14.764Z,15.39
2017-02-14T10:54:14.739Z,15.94
2017-02-14T10:55:14.723Z,16.26
2017-02-14T10:56:15.114Z,16.21
2017-02-14T10:57:15.103Z,16.61
2017-02-14T10:58:15.100Z,16.17
2017-02-14T10:59:15.052Z,15.58
2017-02-14T11:00:14.732Z,15.9
2017-02-14T11:01:14.654Z,16.15
2017-02-14T11:02:15.032Z,16.63
2017-02-14T11:03:15.047Z,16.66
2017-02-14T11:04:14.635Z,16.85
2017-02-14T11:05:14.619Z,17.16
2017-02-14T11:06:14.624Z,17.4
2017-02-14T11:07:14.598Z,17.83
2017-02-14T11:08:14.590Z,18.1
2017-02-14T11:09:14.571Z,18.14
2017-02-14T11:10:14.577Z,18.12
2017-02-14T11:11:14.157Z,18.25
2017-02-14T11:12:14.965Z,18.12
2017-02-14T11:13:14.143Z,17.75
2017-02-14T11:14:15.010Z,17.96
2017-02-14T11:15:14.512Z,17.33
2017-02-14T11:16:14.507Z,17.46
2017-02-14T11:17:14.503Z,17.85
2017-02-14T11:18:14.476Z,18.23
2017-02-14T11:19:14.480Z,18.14
2017-02-14T11:20:14.460Z,18.05
2017-02-14T11:21:14.457Z,17.46
2017-02-14T11:22:14.448Z,17.06
2017-02-14T11:23:14.421Z,17.21
2017-02-14T11:24:14.050Z,17.09
2017-02-14T11:25:14.426Z,16.87
2017-02-14T11:26:14.417Z,17.33
2017-02-14T11:27:14.007Z,17.86
2017-02-14T11:28:14.417Z,18.14
2017-02-14T11:29:14.365Z,18.3
2017-02-14T11:30:14.366Z,18.23
2017-02-14T11:31:14.342Z,18.3
2017-02-14T11:32:14.745Z,18.47
2017-02-14T11:33:14.321Z,17.87
2017-02-14T11:34:14.456Z,17.98
2017-02-14T11:35:14.306Z,18.23
2017-02-14T11:36:14.393Z,18.26
2017-02-14T11:37:14.674Z,18.44
2017-02-14T11:38:14.351Z,18.42
2017-02-14T11:39:14.282Z,18.26
2017-02-14T11:40:13.929Z,17.85
2017-02-14T11:41:14.249Z,16.46
2017-02-14T11:42:14.248Z,16.89
2017-02-14T11:43:14.236Z,17.06
2017-02-14T11:44:14.280Z,17.3
2017-02-14T11:45:14.228Z,16.93
2017-02-14T11:46:14.228Z,17.24
2017-02-14T11:47:13.803Z,17.33
2017-02-14T11:48:14.164Z,16.35
2017-02-14T11:49:14.156Z,16.23
2017-02-14T11:50:14.156Z,16.54
2017-02-14T11:51:14.537Z,16.69
2017-02-14T11:52:13.746Z,17.19
2017-02-14T11:53:14.144Z,16.91
2017-02-14T11:54:14.115Z,17.12
2017-02-14T11:55:14.084Z,17.67
2017-02-14T11:56:14.471Z,18.08
2017-02-14T11:57:14.073Z,17.86
2017-02-14T11:58:14.065Z,17.27
2017-02-14T11:59:14.126Z,16.48
2017-02-14T12:00:14.421Z,16.79
2017-02-14T12:01:14.032Z,16.93
2017-02-14T12:02:14.030Z,17.67
2017-02-14T12:03:14.009Z,17.64
2017-02-14T12:04:14.389Z,17.7
2017-02-14T12:05:14.367Z,17.8
2017-02-14T12:06:13.992Z,17.37
2017-02-14T12:07:13.954Z,16.78
2017-02-14T12:08:14.328Z,16.76
2017-02-14T12:09:13.950Z,17.12
2017-02-14T12:10:14.295Z,16.41
2017-02-14T12:11:14.307Z,16.27
2017-02-14T12:12:13.893Z,16.69
2017-02-14T12:13:13.894Z,17.11
2017-02-14T12:14:13.863Z,17.36
2017-02-14T12:15:13.982Z,17.92
2017-02-14T12:16:13.472Z,18.27
2017-02-14T12:17:14.222Z,18.35
2017-02-14T12:18:13.821Z,18.48
2017-02-14T12:19:14.202Z,18.6
2017-02-14T12:20:13.805Z,18.62
2017-02-14T12:21:14.179Z,18.78
2017-02-14T12:22:14.240Z,18.8
2017-02-14T12:23:13.782Z,18.67
2017-02-14T12:24:13.919Z,18.87
2017-02-14T12:25:13.826Z,19.08
2017-02-14T12:26:13.733Z,19.28
2017-02-14T12:27:13.860Z,19.63
2017-02-14T12:28:14.146Z,19.55
2017-02-14T12:29:13.319Z,19.55
2017-02-14T12:30:14.136Z,19.74
2017-02-14T12:31:13.781Z,19.83
2017-02-14T12:32:13.654Z,19.86
2017-02-14T12:33:14.084Z,19.55
2017-02-14T12:34:14.133Z,19.55
2017-02-14T12:35:14.013Z,19.02
2017-02-14T12:36:14.053Z,18.96
2017-02-14T12:37:14.062Z,18.87
2017-02-14T12:38:13.991Z,18.7
2017-02-14T12:39:13.588Z,18.5
2017-02-14T12:40:13.989Z,17.7
2017-02-14T12:41:14.069Z,17.89
2017-02-14T12:42:13.167Z,17.68
2017-02-14T12:43:13.918Z,17.51
2017-02-14T12:44:13.527Z,18.02
2017-02-14T12:45:13.567Z,18.08
2017-02-14T12:46:13.932Z,18.11
2017-02-14T12:47:13.906Z,18.42
2017-02-14T12:48:13.935Z,18.26
2017-02-14T12:49:13.854Z,18.42
2017-02-14T12:50:13.863Z,18.55
2017-02-14T12:51:13.435Z,18.81
2017-02-14T12:52:13.827Z,18.69
2017-02-14T12:53:13.430Z,18.75
2017-02-14T12:54:13.820Z,18.7
2017-02-14T12:55:13.401Z,18.47
2017-02-14T12:56:13.791Z,17.71
2017-02-14T12:57:13.763Z,17.95
2017-02-14T12:58:13.779Z,18.22
2017-02-14T12:59:13.345Z,18.42
2017-02-14T13:00:13.404Z,18.62
2017-02-14T13:01:13.756Z,18.8
2017-02-14T13:02:13.307Z,18.95
2017-02-14T13:03:13.286Z,18.88
2017-02-14T13:04:13.333Z,19.21
2017-02-14T13:05:13.395Z,19.12
2017-02-14T13:06:13.266Z,18.77
2017-02-14T13:07:13.238Z,18.93
2017-02-14T13:08:13.252Z,19.16
2017-02-14T13:09:13.634Z,19.23
2017-02-14T13:10:13.207Z,19.22